createdAt,value
2018-02-09T00:00:56.059Z,21.30
2018-02-09T00:03:24.226Z,21.20
2018-02-09T00:05:52.475Z,21.20
2018-02-09T00:08:21.444Z,21.30
2018-02-09T00:10:49.598Z,21.30
2018-02-09T00:13:17.922Z,21.30
2018-02-09T00:15:46.870Z,21.30
2018-02-09T00:18:15.029Z,21.30
2018-02-09T00:20:43.219Z,21.30
2018-02-09T00:23:11.395Z,21.30
2018-02-09T00:25:39.640Z,21.30
2018-02-09T00:28:07.812Z,21.20
2018-02-09T00:30:36.020Z,21.20
2018-02-09T00:33:04.398Z,21.20
2018-02-09T00:35:32.637Z,21.20
2018-02-09T00:38:00.811Z,21.20
2018-02-09T00:40:29.046Z,21.20
2018-02-09T00:42:58.266Z,21.30
2018-02-09T00:45:26.442Z,21.20
2018-02-09T00:47:54.627Z,21.20
2018-02-09T00:50:22.787Z,21.30
2018-02-09T00:52:51.003Z,21.30
2018-02-09T00:55:19.144Z,21.20
2018-02-09T00:57:47.428Z,21.20
2018-02-09T01:00:15.585Z,21.20
2018-02-09T01:02:43.846Z,21.10
2018-02-09T01:05:12.080Z,21.70
2018-02-09T01:07:40.386Z,21.20
2018-02-09T01:10:08.603Z,21.10
2018-02-09T01:12:36.839Z,21.10
2018-02-09T01:15:05.083Z,21.10
2018-02-09T01:17:34.054Z,21.20
2018-02-09T01:20:02.267Z,21.10
2018-02-09T01:22:30.456Z,21.10
2018-02-09T01:24:58.700Z,21.20
2018-02-09T01:27:26.946Z,21.20
2018-02-09T01:29:55.159Z,21.10
2018-02-09T01:32:24.297Z,21.20
2018-02-09T01:34:52.518Z,21.20
2018-02-09T01:37:20.676Z,21.20
2018-02-09T01:39:49.677Z,21.20
2018-02-09T01:42:17.900Z,21.20
2018-02-09T01:44:46.089Z,21.20
2018-02-09T01:47:14.350Z,21.20
2018-02-09T01:49:42.554Z,21.20
2018-02-09T01:52:10.774Z,21.30
2018-02-09T01:54:38.948Z,21.20
2018-02-09T01:57:07.217Z,21.20
2018-02-09T01:59:35.453Z,21.20
2018-02-09T02:02:03.690Z,21.20
2018-02-09T02:04:31.886Z,21.20
2018-02-09T02:07:00.197Z,21.20
2018-02-09T02:09:29.320Z,21.10
2018-02-09T02:11:58.294Z,21.20
2018-02-09T02:14:27.235Z,21.10
2018-02-09T02:16:55.416Z,21.10
2018-02-09T02:19:23.683Z,21.10
2018-02-09T02:21:52.458Z,21.10
2018-02-09T02:24:21.462Z,21.10
2018-02-09T02:26:49.759Z,21.10
2018-02-09T02:29:17.961Z,21.00
2018-02-09T02:31:46.918Z,21.00
2018-02-09T02:34:15.092Z,21.00
2018-02-09T02:36:43.246Z,21.00
2018-02-09T02:39:11.552Z,21.10
2018-02-09T02:41:39.754Z,21.00
2018-02-09T02:44:08.750Z,21.00
2018-02-09T02:51:24.012Z,21.00
2018-02-09T02:53:52.187Z,21.10
2018-02-09T02:58:58.897Z,21.10
2018-02-09T03:01:27.106Z,21.00
2018-02-09T03:03:55.270Z,21.10
2018-02-09T03:06:23.787Z,21.10
2018-02-09T03:08:51.927Z,21.00
2018-02-09T03:11:20.126Z,21.00
2018-02-09T03:13:48.383Z,21.10
2018-02-09T03:16:16.679Z,21.00
2018-02-09T03:18:45.014Z,20.90
2018-02-09T03:21:13.263Z,21.00
2018-02-09T03:23:41.482Z,20.90
2018-02-09T03:26:09.638Z,20.80
2018-02-09T03:28:37.808Z,20.90
2018-02-09T03:31:05.958Z,20.90
2018-02-09T03:33:35.662Z,20.90
2018-02-09T03:36:03.854Z,21.30
2018-02-09T03:38:32.195Z,20.90
2018-02-09T03:41:00.479Z,20.90
2018-02-09T03:43:28.638Z,20.90
2018-02-09T03:45:56.847Z,20.90
2018-02-09T03:48:25.996Z,21.00
2018-02-09T03:50:54.233Z,20.90
2018-02-09T03:53:23.332Z,21.00
2018-02-09T03:55:51.494Z,21.00
2018-02-09T03:58:20.446Z,20.90
2018-02-09T04:00:48.597Z,20.90
2018-02-09T04:03:16.837Z,21.00
2018-02-09T04:05:45.815Z,20.90
2018-02-09T04:08:14.839Z,20.90
2018-02-09T04:10:43.012Z,20.90
2018-02-09T04:13:12.226Z,21.00
2018-02-09T04:15:40.402Z,21.10
2018-02-09T04:18:08.664Z,21.10
2018-02-09T04:20:36.842Z,21.10
2018-02-09T04:23:05.162Z,21.10
2018-02-09T04:25:33.345Z,21.00
2018-02-09T04:28:01.604Z,21.00
2018-02-09T04:30:29.772Z,20.90
2018-02-09T04:32:58.125Z,20.80
2018-02-09T04:35:26.302Z,20.80
2018-02-09T04:37:54.515Z,20.70
2018-02-09T04:40:22.797Z,20.70
2018-02-09T04:42:51.794Z,20.80
2018-02-09T04:45:26.261Z,20.80
2018-02-09T04:47:54.441Z,20.70
2018-02-09T04:50:22.599Z,20.80
2018-02-09T04:52:50.921Z,20.80
2018-02-09T04:55:19.861Z,20.80
2018-02-09T04:57:48.464Z,20.70
2018-02-09T05:00:16.655Z,20.90
2018-02-09T05:02:44.947Z,21.00
2018-02-09T05:05:13.113Z,20.90
2018-02-09T05:07:41.350Z,21.00
2018-02-09T05:10:09.599Z,20.80
2018-02-09T05:12:37.840Z,20.90
2018-02-09T05:15:06.055Z,20.80
2018-02-09T05:17:34.398Z,20.40
2018-02-09T05:20:03.403Z,20.70
2018-02-09T05:22:31.676Z,20.70
2018-02-09T05:25:00.642Z,20.60
2018-02-09T05:27:28.936Z,20.60
2018-02-09T05:29:57.874Z,20.70
2018-02-09T05:32:26.055Z,20.60
2018-02-09T05:34:54.272Z,20.60
2018-02-09T05:37:24.689Z,20.60
2018-02-09T05:39:53.168Z,20.50
2018-02-09T05:42:21.547Z,20.30
2018-02-09T05:44:50.524Z,20.60
2018-02-09T05:47:19.658Z,20.50
2018-02-09T05:49:48.584Z,20.60
2018-02-09T05:52:16.771Z,20.50
2018-02-09T05:54:44.930Z,20.60
2018-02-09T05:57:13.119Z,20.60
2018-02-09T05:59:41.376Z,20.50
2018-02-09T06:02:11.185Z,20.50
2018-02-09T06:04:39.475Z,20.50
2018-02-09T06:07:07.667Z,20.50
2018-02-09T06:09:35.870Z,20.40
2018-02-09T06:12:04.834Z,20.40
2018-02-09T06:14:33.047Z,20.40
2018-02-09T06:17:01.273Z,20.40
2018-02-09T06:19:29.517Z,20.50
2018-02-09T06:21:58.573Z,20.50
2018-02-09T06:24:27.561Z,20.50
2018-02-09T06:26:56.515Z,20.50
2018-02-09T06:29:24.759Z,20.50
2018-02-09T06:31:53.025Z,20.50
2018-02-09T06:34:21.760Z,20.50
2018-02-09T06:36:53.694Z,20.50
2018-02-09T06:39:29.469Z,20.50
2018-02-09T06:41:57.652Z,20.50
2018-02-09T06:44:27.292Z,20.50
2018-02-09T06:46:55.538Z,20.50
2018-02-09T06:49:23.796Z,20.50
2018-02-09T06:51:52.020Z,20.40
2018-02-09T06:54:20.258Z,20.30
2018-02-09T06:56:48.563Z,20.30
2018-02-09T06:59:16.737Z,20.30
2018-02-09T07:01:45.780Z,20.20
2018-02-09T07:04:14.385Z,20.20
2018-02-09T07:06:42.564Z,20.30
2018-02-09T07:09:11.595Z,20.30
2018-02-09T07:11:39.926Z,20.20
2018-02-09T07:14:08.892Z,20.20
2018-02-09T07:16:37.082Z,20.20
2018-02-09T07:19:06.118Z,20.20
2018-02-09T07:21:34.673Z,20.20
2018-02-09T07:24:02.946Z,20.20
2018-02-09T07:26:31.366Z,20.30
2018-02-09T07:29:03.901Z,20.20
2018-02-09T07:31:33.195Z,20.30
2018-02-09T07:34:01.623Z,20.20
2018-02-09T07:36:30.613Z,20.80
2018-02-09T07:39:01.306Z,20.40
2018-02-09T07:41:30.509Z,20.50
2018-02-09T07:43:59.298Z,20.50
2018-02-09T07:46:27.685Z,20.50
2018-02-09T07:48:59.225Z,20.50
2018-02-09T07:51:28.316Z,20.50
2018-02-09T07:53:57.273Z,20.50
2018-02-09T07:56:25.545Z,20.50
2018-02-09T07:58:53.703Z,20.60
2018-02-09T08:01:21.931Z,20.40
2018-02-09T08:03:50.118Z,20.40
2018-02-09T08:06:18.374Z,20.40
2018-02-09T08:08:47.367Z,20.30
2018-02-09T08:11:15.697Z,20.30
2018-02-09T08:13:45.746Z,20.20
2018-02-09T08:16:14.303Z,20.30
2018-02-09T08:18:43.397Z,20.70
2018-02-09T08:21:13.208Z,20.20
2018-02-09T08:23:41.515Z,20.20
2018-02-09T08:26:09.803Z,20.30
2018-02-09T08:28:38.771Z,20.20
2018-02-09T08:31:06.949Z,20.20
2018-02-09T08:33:36.192Z,20.30
2018-02-09T08:36:04.713Z,20.30
2018-02-09T08:38:32.975Z,20.30
2018-02-09T08:41:02.138Z,20.40
2018-02-09T08:43:30.455Z,20.40
2018-02-09T08:45:58.717Z,20.40
2018-02-09T08:48:26.950Z,20.50
2018-02-09T08:50:56.435Z,20.40
2018-02-09T08:53:24.979Z,20.40
2018-02-09T08:55:54.947Z,20.40
2018-02-09T08:58:23.963Z,20.40
2018-02-09T09:00:53.223Z,20.40
2018-02-09T09:03:21.515Z,20.50
2018-02-09T09:05:50.557Z,20.60
2018-02-09T09:08:18.946Z,20.60
2018-02-09T09:10:47.236Z,20.60
2018-02-09T09:13:15.436Z,20.60
2018-02-09T09:15:44.430Z,20.60
2018-02-09T09:18:13.443Z,20.60
2018-02-09T09:20:41.689Z,20.60
2018-02-09T09:23:09.928Z,20.60
2018-02-09T09:25:38.182Z,20.60
2018-02-09T09:28:06.386Z,20.60
2018-02-09T09:30:34.654Z,20.60
2018-02-09T09:33:02.891Z,20.60
2018-02-09T09:35:31.151Z,20.60
2018-02-09T09:37:59.474Z,20.60
2018-02-09T09:40:27.972Z,20.70
2018-02-09T09:42:57.014Z,20.70
2018-02-09T09:45:25.206Z,20.60
2018-02-09T09:50:28.277Z,20.80
2018-02-09T09:52:56.571Z,20.80
2018-02-09T09:55:24.785Z,20.40
2018-02-09T09:57:53.036Z,20.80
2018-02-09T10:00:21.245Z,20.90
2018-02-09T10:02:49.519Z,21.00
2018-02-09T10:05:17.860Z,21.00
2018-02-09T10:07:46.152Z,21.10
2018-02-09T10:10:14.289Z,21.10
2018-02-09T10:12:42.575Z,21.10
2018-02-09T10:15:10.795Z,21.00
2018-02-09T10:17:39.080Z,21.00
2018-02-09T10:20:07.330Z,21.00
2018-02-09T10:22:35.560Z,21.00
2018-02-09T10:25:04.611Z,21.00
2018-02-09T10:27:32.891Z,21.00
2018-02-09T10:30:01.110Z,21.00
2018-02-09T10:32:29.340Z,21.00
2018-02-09T10:34:57.563Z,21.00
2018-02-09T10:37:25.720Z,21.00
2018-02-09T10:39:54.034Z,21.00
2018-02-09T10:42:22.267Z,21.00
2018-02-09T10:44:51.258Z,21.00
2018-02-09T10:47:21.824Z,21.10
2018-02-09T10:49:50.022Z,21.00
2018-02-09T10:52:18.203Z,21.10
2018-02-09T10:54:46.588Z,21.20
2018-02-09T10:57:14.765Z,21.20
2018-02-09T10:59:43.007Z,20.80
2018-02-09T11:02:11.260Z,21.70
2018-02-09T11:04:39.469Z,21.20
2018-02-09T11:07:08.444Z,21.30
2018-02-09T11:09:36.661Z,21.30
2018-02-09T11:12:07.441Z,21.30
2018-02-09T11:14:35.606Z,21.30
2018-02-09T11:17:03.828Z,21.30
2018-02-09T11:19:32.110Z,21.30
2018-02-09T11:22:01.125Z,21.40
2018-02-09T11:24:30.103Z,21.40
2018-02-09T11:26:59.342Z,21.50
2018-02-09T11:29:27.523Z,21.40
2018-02-09T11:31:55.729Z,21.50
2018-02-09T11:34:23.908Z,21.50
2018-02-09T11:36:52.082Z,21.50
2018-02-09T11:39:20.382Z,21.60
2018-02-09T11:41:49.452Z,21.50
2018-02-09T11:44:17.645Z,21.50
2018-02-09T11:46:46.628Z,21.50
2018-02-09T11:49:15.621Z,21.60
2018-02-09T11:51:44.631Z,21.50
2018-02-09T11:54:12.882Z,21.50
2018-02-09T11:56:41.173Z,21.50
2018-02-09T11:59:10.149Z,21.60
2018-02-09T12:01:38.352Z,21.50
2018-02-09T12:04:06.589Z,21.60
2018-02-09T12:06:34.748Z,22.10
2018-02-09T12:09:03.079Z,21.60
2018-02-09T12:11:31.374Z,21.60
2018-02-09T12:14:00.110Z,21.60
2018-02-09T12:16:29.272Z,21.60
2018-02-09T12:18:57.518Z,21.60
2018-02-09T12:21:25.791Z,21.60
2018-02-09T12:23:54.035Z,21.60
2018-02-09T12:26:23.030Z,21.60
2018-02-09T12:28:52.119Z,21.60
2018-02-09T12:31:21.180Z,21.60
2018-02-09T12:33:49.387Z,21.60
2018-02-09T12:36:18.359Z,21.70
2018-02-09T12:38:46.605Z,21.60
2018-02-09T12:41:15.720Z,21.70
2018-02-09T12:43:43.899Z,21.80
2018-02-09T12:46:12.135Z,21.70
2018-02-09T12:48:40.379Z,21.80
2018-02-09T12:51:09.611Z,21.80
2018-02-09T12:53:38.576Z,21.80
2018-02-09T12:56:06.785Z,21.80
2018-02-09T12:58:35.254Z,21.70
2018-02-09T13:01:03.512Z,21.80
2018-02-09T13:03:31.741Z,21.80
2018-02-09T13:05:59.988Z,21.80
2018-02-09T13:08:28.244Z,21.80
2018-02-09T13:10:56.458Z,21.80
2018-02-09T13:13:24.690Z,21.70
2018-02-09T13:15:52.951Z,21.80
2018-02-09T13:18:39.695Z,21.80
2018-02-09T13:21:07.899Z,21.80
2018-02-09T13:23:55.015Z,21.90
2018-02-09T13:26:23.226Z,21.80
2018-02-09T13:28:59.995Z,21.90
2018-02-09T13:31:28.269Z,21.80
2018-02-09T13:33:57.197Z,21.90
2018-02-09T13:36:43.150Z,21.80
2018-02-09T13:39:11.499Z,21.90
2018-02-09T13:41:39.727Z,21.90
2018-02-09T13:44:08.044Z,21.90
2018-02-09T13:46:36.299Z,21.90
2018-02-09T13:49:04.528Z,21.90
2018-02-09T13:51:34.348Z,21.90
2018-02-09T13:54:21.986Z,21.90
2018-02-09T13:56:50.260Z,21.90
2018-02-09T13:59:18.524Z,21.90
2018-02-09T14:01:46.763Z,21.90
2018-02-09T14:04:15.002Z,22.00
2018-02-09T14:06:43.301Z,22.00
2018-02-09T14:09:11.500Z,22.00
2018-02-09T14:11:39.715Z,22.00
2018-02-09T14:14:07.986Z,22.00
2018-02-09T14:16:36.219Z,21.90
2018-02-09T14:19:04.456Z,21.90
2018-02-09T14:21:32.758Z,21.80
2018-02-09T14:24:01.062Z,21.90
2018-02-09T14:26:30.000Z,21.90
2018-02-09T14:28:58.223Z,21.80
2018-02-09T14:31:27.229Z,21.90
2018-02-09T14:33:55.424Z,21.80
2018-02-09T14:36:23.633Z,21.90
2018-02-09T14:38:51.889Z,21.90
2018-02-09T14:41:20.096Z,21.90
2018-02-09T14:43:48.292Z,21.90
2018-02-09T14:46:17.775Z,21.90
2018-02-09T14:48:47.855Z,21.90
2018-02-09T14:51:16.633Z,21.80
2018-02-09T14:53:46.276Z,21.90
2018-02-09T14:56:14.532Z,21.80
2018-02-09T14:58:42.861Z,21.90
2018-02-09T15:01:11.158Z,21.80
2018-02-09T15:03:39.404Z,21.80
2018-02-09T15:06:09.568Z,21.90
2018-02-09T15:08:38.754Z,21.80
2018-02-09T15:11:07.928Z,21.80
2018-02-09T15:13:36.199Z,21.80
2018-02-09T15:16:04.502Z,21.80
2018-02-09T15:18:32.751Z,21.80
2018-02-09T15:21:01.079Z,21.80
2018-02-09T15:23:29.262Z,21.80
2018-02-09T15:25:58.483Z,21.80
2018-02-09T15:28:26.839Z,21.80
2018-02-09T15:30:55.178Z,21.80
2018-02-09T15:33:23.498Z,21.80
2018-02-09T15:35:51.701Z,21.90
2018-02-09T15:38:19.911Z,21.90
2018-02-09T15:40:48.916Z,21.90
2018-02-09T15:43:17.282Z,21.80
2018-02-09T15:45:45.572Z,21.80
2018-02-09T15:48:13.842Z,21.80
2018-02-09T15:50:42.149Z,21.80
2018-02-09T15:53:10.390Z,21.80
2018-02-09T15:55:38.663Z,21.70
2018-02-09T15:58:06.941Z,21.60
2018-02-09T16:00:35.164Z,21.60
2018-02-09T16:03:03.524Z,21.60
2018-02-09T16:05:31.872Z,21.60
2018-02-09T16:08:00.214Z,21.60
2018-02-09T16:10:28.537Z,21.70
2018-02-09T16:12:56.763Z,21.70
2018-02-09T16:15:24.970Z,21.70
2018-02-09T16:17:54.172Z,21.70
2018-02-09T16:20:22.487Z,21.70
2018-02-09T16:22:51.539Z,21.80
2018-02-09T16:25:19.822Z,21.80
2018-02-09T16:27:48.169Z,21.80
2018-02-09T16:30:16.431Z,21.90
2018-02-09T16:32:44.754Z,21.90
2018-02-09T16:35:12.942Z,22.00
2018-02-09T16:37:41.308Z,21.90
2018-02-09T16:40:09.533Z,22.00
2018-02-09T16:42:38.659Z,22.00
2018-02-09T16:45:07.067Z,22.00
2018-02-09T16:47:35.278Z,22.10
2018-02-09T16:50:03.497Z,22.10
2018-02-09T16:52:31.733Z,22.10
2018-02-09T16:55:00.101Z,22.10
2018-02-09T16:57:28.392Z,22.10
2018-02-09T16:59:56.604Z,22.10
2018-02-09T17:02:24.918Z,22.10
2018-02-09T17:04:53.106Z,22.60
2018-02-09T17:07:21.416Z,22.20
2018-02-09T17:09:49.631Z,22.20
2018-02-09T17:12:18.619Z,22.20
2018-02-09T17:14:46.822Z,22.20
2018-02-09T17:17:15.015Z,22.10
2018-02-09T17:19:43.320Z,22.10
2018-02-09T17:22:11.524Z,22.10
2018-02-09T17:24:40.590Z,22.10
2018-02-09T17:27:08.826Z,22.10
2018-02-09T17:29:37.048Z,22.20
2018-02-09T17:32:05.308Z,22.20
2018-02-09T17:34:33.500Z,22.20
2018-02-09T17:37:01.755Z,22.20
2018-02-09T17:39:29.948Z,22.20
2018-02-09T17:41:58.186Z,22.20
2018-02-09T17:44:26.362Z,22.10
2018-02-09T17:46:54.592Z,22.20
2018-02-09T17:49:23.554Z,22.20
2018-02-09T17:51:51.738Z,22.10
2018-02-09T17:54:19.927Z,22.20
2018-02-09T17:56:48.896Z,22.20
2018-02-09T17:59:17.190Z,22.10
2018-02-09T18:01:45.401Z,22.10
2018-02-09T18:04:14.135Z,22.10
2018-02-09T18:06:42.361Z,22.20
2018-02-09T18:09:10.548Z,22.10
2018-02-09T18:11:38.747Z,22.10
2018-02-09T18:14:07.001Z,22.10
2018-02-09T18:16:35.277Z,22.10
2018-02-09T18:19:04.212Z,22.10
2018-02-09T18:21:33.211Z,22.00
2018-02-09T18:24:01.528Z,22.00
2018-02-09T18:26:30.590Z,22.00
2018-02-09T18:28:58.844Z,22.00
2018-02-09T18:31:27.030Z,22.10
2018-02-09T18:33:55.255Z,22.10
2018-02-09T18:36:23.557Z,22.20
2018-02-09T18:38:51.784Z,22.20
2018-02-09T18:41:20.128Z,22.20
2018-02-09T18:43:48.346Z,22.20
2018-02-09T18:46:19.032Z,22.10
2018-02-09T18:48:52.645Z,22.10
2018-02-09T18:51:20.862Z,22.00
2018-02-09T18:53:49.074Z,22.00
2018-02-09T18:56:17.271Z,21.90
2018-02-09T18:58:47.422Z,21.80
2018-02-09T19:01:15.736Z,21.80
2018-02-09T19:03:44.698Z,21.90
2018-02-09T19:06:12.944Z,21.80
2018-02-09T19:08:41.178Z,21.90
2018-02-09T19:11:09.373Z,22.00
2018-02-09T19:13:37.591Z,22.00
2018-02-09T19:16:05.780Z,21.90
2018-02-09T19:18:33.998Z,21.90
2018-02-09T19:21:02.272Z,21.90
2018-02-09T19:23:31.757Z,21.80
2018-02-09T19:26:00.779Z,21.80
2018-02-09T19:28:29.054Z,21.80
2018-02-09T19:30:57.339Z,21.80
2018-02-09T19:33:25.723Z,21.80
2018-02-09T19:35:54.137Z,21.90
2018-02-09T19:38:23.277Z,22.00
2018-02-09T19:40:52.654Z,21.90
2018-02-09T19:43:21.681Z,21.90
2018-02-09T19:45:50.058Z,21.90
2018-02-09T19:48:18.422Z,21.90
2018-02-09T19:50:46.746Z,21.80
2018-02-09T19:53:16.227Z,21.90
2018-02-09T19:55:44.593Z,21.90
2018-02-09T19:58:13.079Z,21.80
2018-02-09T20:00:42.408Z,21.90
2018-02-09T20:03:11.556Z,21.80
2018-02-09T20:05:40.768Z,21.90
2018-02-09T20:08:09.102Z,21.90
2018-02-09T20:10:37.475Z,21.80
2018-02-09T20:13:05.753Z,21.90
2018-02-09T20:15:34.087Z,21.90
2018-02-09T20:18:02.604Z,21.90
2018-02-09T20:20:31.680Z,21.80
2018-02-09T20:23:00.740Z,21.90
2018-02-09T20:25:29.118Z,22.00
2018-02-09T20:27:58.399Z,21.90
2018-02-09T20:30:45.158Z,21.90
2018-02-09T20:50:49.179Z,21.80
2018-02-09T20:53:42.566Z,21.80
2018-02-09T23:02:16.604Z,22.10
2018-02-09T23:12:10.931Z,22.30
